Time;durP1;ratioP1;P1;durP2;ratioP2;P2;SDS_P1;SDS_P2;PMS_P1;PMS_P2;Temp;Humidity;BMP_temperature;BMP_pressure;BME280_temperature;BME280_humidity;BME280_pressure;Samples;Min_cycle;Max_cycle;Signal;HPM_P1;HPM_P2
2023/02/21 02:26:41;;;;;;;5.90;4.10;;;18.20;58.60;;;;;;6335794;22;20513;-84
2023/02/21 02:29:20;;;;;;;7.30;5.70;;;18.20;58.60;;;;;;6223207;23;20491;-84
2023/02/21 02:31:59;;;;;;;11.27;6.97;;;18.20;58.60;;;;;;6343032;22;20378;-84
2023/02/21 02:34:37;;;;;;;10.93;7.00;;;18.20;58.70;;;;;;6342240;22;20416;-84
2023/02/21 02:37:09;;;;;;;11.17;7.20;;;18.20;58.60;;;;;;6342342;22;20394;-84
2023/02/21 02:39:40;;;;;;;9.07;6.67;;;18.20;58.80;;;;;;6345882;22;20399;-84
2023/02/21 02:42:11;;;;;;;11.77;6.83;;;18.20;58.60;;;;;;6344823;22;20498;-84
2023/02/21 02:44:40;;;;;;;9.47;6.90;;;18.10;58.60;;;;;;6346438;22;20450;-84
2023/02/21 02:47:10;;;;;;;12.03;6.77;;;18.20;58.60;;;;;;6346876;22;20450;-84
2023/02/21 02:49:41;;;;;;;9.60;6.67;;;18.10;58.70;;;;;;6342256;22;20496;-84
2023/02/21 02:52:10;;;;;;;9.17;6.90;;;18.20;58.80;;;;;;6341806;22;20395;-84
2023/02/21 02:54:38;;;;;;;10.27;6.87;;;18.20;58.70;;;;;;6341101;22;20430;-84
2023/02/21 02:57:09;;;;;;;11.67;6.83;;;18.20;58.70;;;;;;6345884;22;20410;-85
2023/02/21 02:59:37;;;;;;;10.50;6.90;;;18.20;58.70;;;;;;6350474;22;20410;-84
2023/02/21 03:02:24;;;;;;;9.07;6.50;;;18.20;58.60;;;;;;6340252;22;20391;-84
2023/02/21 03:05:11;;;;;;;11.43;7.17;;;18.20;58.60;;;;;;6338259;22;20423;-84
2023/02/21 03:07:43;;;;;;;10.67;6.50;;;18.20;58.70;;;;;;6338537;22;20427;-84
2023/02/21 03:10:14;;;;;;;11.63;6.73;;;18.20;58.70;;;;;;6339474;22;20399;-84
2023/02/21 03:12:45;;;;;;;10.13;6.57;;;18.20;58.60;;;;;;6340007;22;20506;-84
2023/02/21 03:15:16;;;;;;;11.43;6.30;;;18.20;58.70;;;;;;6342943;22;20407;-85
2023/02/21 03:17:56;;;;;;;8.40;5.70;;;18.20;58.70;;;;;;6343477;22;20392;-85
2023/02/21 03:20:25;;;;;;;10.77;6.43;;;18.20;58.60;;;;;;6342383;22;20490;-85
2023/02/21 03:23:04;;;;;;;8.50;5.80;;;18.20;58.70;;;;;;6342800;22;20846;-85
2023/02/21 03:25:32;;;;;;;10.50;6.47;;;18.20;58.70;;;;;;6343237;22;20411;-85
2023/02/21 03:28:01;;;;;;;9.13;5.60;;;18.10;58.70;;;;;;6341933;22;20402;-86
2023/02/21 03:30:29;;;;;;;8.23;6.30;;;18.20;58.80;;;;;;6342696;22;20400;-85
2023/02/21 03:32:57;;;;;;;10.63;6.00;;;18.20;58.70;;;;;;6341765;22;20461;-85
2023/02/21 03:35:29;;;;;;;7.90;5.57;;;18.20;58.60;;;;;;6343016;22;20490;-85
2023/02/21 03:37:58;;;;;;;7.20;5.53;;;18.20;58.70;;;;;;6345479;22;20391;-85
2023/02/21 03:40:27;;;;;;;9.97;5.50;;;18.20;58.70;;;;;;6346074;22;20395;-85
2023/02/21 03:42:56;;;;;;;7.63;5.73;;;18.20;58.70;;;;;;6347840;22;20407;-85
2023/02/21 03:45:24;;;;;;;7.97;5.00;;;18.10;58.70;;;;;;6346726;22;20452;-85
2023/02/21 03:47:52;;;;;;;6.90;5.40;;;18.20;58.80;;;;;;6343820;22;20461;-85
2023/02/21 03:50:21;;;;;;;7.93;5.80;;;18.10;58.70;;;;;;6346345;22;20502;-85
2023/02/21 03:52:50;;;;;;;7.27;5.53;;;18.20;58.90;;;;;;6347407;22;20423;-85
2023/02/21 03:55:20;;;;;;;9.87;5.83;;;18.20;58.80;;;;;;6346480;22;20430;-85
2023/02/21 03:57:48;;;;;;;7.80;5.53;;;18.20;58.70;;;;;;6345852;22;20410;-84
2023/02/21 04:00:16;;;;;;;8.13;5.50;;;18.20;58.70;;;;;;6346031;22;20392;-86
2023/02/21 04:02:44;;;;;;;8.23;5.00;;;18.20;58.70;;;;;;6343768;22;20423;-85
2023/02/21 04:05:12;;;;;;;6.53;5.00;;;18.20;58.80;;;;;;6344491;22;20431;-86
2023/02/21 04:07:41;;;;;;;7.53;5.27;;;18.20;58.80;;;;;;6346935;22;20427;-85
2023/02/21 04:10:10;;;;;;;9.47;5.30;;;18.10;58.70;;;;;;6346070;22;20910;-86
2023/02/21 04:12:39;;;;;;;5.20;4.70;;;18.20;58.80;;;;;;6344838;22;20451;-85
2023/02/21 04:15:08;;;;;;;7.33;4.90;;;18.20;58.90;;;;;;6345742;22;20404;-85
2023/02/21 04:17:36;;;;;;;8.10;4.70;;;18.10;58.70;;;;;;6345793;22;20466;-84
2023/02/21 04:20:04;;;;;;;9.37;5.00;;;18.20;58.80;;;;;;6344984;22;20478;-85
2023/02/21 04:22:32;;;;;;;5.70;5.10;;;18.20;58.80;;;;;;6343983;22;20403;-86
2023/02/21 04:25:01;;;;;;;7.10;5.07;;;18.10;58.80;;;;;;6346487;22;20411;-84
2023/02/21 04:27:30;;;;;;;5.73;4.33;;;18.10;58.70;;;;;;6346334;22;20519;-83
2023/02/21 04:29:58;;;;;;;5.63;4.70;;;18.20;59.00;;;;;;6345511;22;20491;-84
2023/02/21 04:32:26;;;;;;;4.63;4.20;;;18.20;58.80;;;;;;6346057;22;20403;-85
2023/02/21 04:34:54;;;;;;;6.60;4.73;;;18.10;58.80;;;;;;6347569;22;20430;-85
2023/02/21 04:37:22;;;;;;;5.40;4.10;;;18.20;58.90;;;;;;6346302;22;20400;-85
2023/02/21 04:39:51;;;;;;;6.60;4.80;;;18.10;58.90;;;;;;6344810;22;20400;-84
2023/02/21 04:42:18;;;;;;;5.97;4.53;;;18.10;58.80;;;;;;6344379;22;20423;-84
2023/02/21 04:44:48;;;;;;;7.17;4.27;;;18.20;58.90;;;;;;6344140;22;20403;-84
2023/02/21 04:47:27;;;;;;;6.00;4.00;;;18.10;58.90;;;;;;6343388;22;20434;-84
2023/02/21 04:49:55;;;;;;;6.30;4.47;;;18.10;58.80;;;;;;6344287;22;20403;-84
2023/02/21 04:52:23;;;;;;;5.13;4.53;;;18.20;59.00;;;;;;6343447;22;20407;-84
2023/02/21 04:54:51;;;;;;;5.73;4.37;;;18.10;58.80;;;;;;6344895;22;20404;-84
2023/02/21 04:57:19;;;;;;;4.10;3.60;;;18.10;58.80;;;;;;6343665;22;20399;-85
2023/02/21 04:59:49;;;;;;;6.33;4.27;;;18.20;59.00;;;;;;6344462;22;20403;-84
2023/02/21 05:02:17;;;;;;;4.90;4.40;;;18.10;58.80;;;;;;6349186;22;20495;-84
2023/02/21 05:04:45;;;;;;;7.10;4.53;;;18.20;59.00;;;;;;6343340;22;20403;-85
2023/02/21 05:07:13;;;;;;;6.00;4.60;;;18.10;58.70;;;;;;6344575;22;20506;-86
2023/02/21 05:09:41;;;;;;;5.07;4.57;;;18.10;58.80;;;;;;6345289;22;20482;-85
2023/02/21 05:12:11;;;;;;;6.73;3.80;;;18.10;58.90;;;;;;6344706;22;20404;-85
2023/02/21 05:14:39;;;;;;;6.10;4.23;;;18.10;58.80;;;;;;6344826;22;20424;-85
2023/02/21 05:17:08;;;;;;;7.57;3.93;;;18.10;58.80;;;;;;6344076;22;20406;-85
2023/02/21 05:19:36;;;;;;;5.63;4.20;;;18.20;58.90;;;;;;6345562;22;20426;-86
2023/02/21 05:22:06;;;;;;;5.27;4.27;;;18.10;58.90;;;;;;6346635;22;20384;-85
2023/02/21 05:24:34;;;;;;;6.07;4.13;;;18.10;58.90;;;;;;6345633;22;20431;-85
2023/02/21 05:27:02;;;;;;;6.27;4.00;;;18.10;58.80;;;;;;6345945;22;20463;-85
2023/02/21 05:29:30;;;;;;;4.30;3.43;;;18.10;58.90;;;;;;6344199;22;20410;-85
2023/02/21 05:31:58;;;;;;;6.93;4.23;;;18.10;58.90;;;;;;6344008;22;20467;-85
2023/02/21 05:34:28;;;;;;;6.90;4.20;;;18.10;58.90;;;;;;6345210;22;20449;-85
2023/02/21 05:36:56;;;;;;;4.47;3.97;;;18.10;58.90;;;;;;6345522;22;20498;-87
2023/02/21 05:39:24;;;;;;;5.57;3.57;;;18.10;58.90;;;;;;6344637;22;20410;-81
2023/02/21 05:41:53;;;;;;;5.73;3.97;;;18.10;58.90;;;;;;6345609;22;20425;-85
2023/02/21 05:44:21;;;;;;;4.73;3.87;;;18.10;59.00;;;;;;6346648;22;20423;-85
2023/02/21 05:46:49;;;;;;;4.50;3.93;;;18.10;58.90;;;;;;6348675;22;20479;-85
2023/02/21 05:49:17;;;;;;;4.63;3.80;;;18.10;58.90;;;;;;6343570;22;20412;-85
2023/02/21 05:51:47;;;;;;;5.00;3.87;;;18.10;59.00;;;;;;6343412;22;20487;-83
2023/02/21 05:54:16;;;;;;;4.63;3.80;;;18.10;59.00;;;;;;6341827;22;20430;-85
2023/02/21 05:56:45;;;;;;;4.20;3.80;;;18.10;59.00;;;;;;6343099;22;20489;-84
2023/02/21 05:59:13;;;;;;;7.97;4.50;;;18.10;59.00;;;;;;6342490;22;20486;-85
2023/02/21 06:01:41;;;;;;;4.87;3.93;;;18.10;59.00;;;;;;6342553;22;20493;-84
2023/02/21 06:04:09;;;;;;;4.73;4.23;;;18.10;59.00;;;;;;6342440;22;20423;-85
2023/02/21 06:06:37;;;;;;;6.50;3.83;;;18.10;59.00;;;;;;6343096;22;20550;-85
2023/02/21 06:09:09;;;;;;;5.73;4.10;;;18.10;59.00;;;;;;6350137;22;20475;-85
2023/02/21 06:11:38;;;;;;;5.30;3.63;;;18.10;59.00;;;;;;6341123;22;20404;-84
2023/02/21 06:14:07;;;;;;;4.07;3.40;;;18.10;59.10;;;;;;6340623;22;20532;-84
2023/02/21 06:16:35;;;;;;;4.30;3.40;;;18.10;59.00;;;;;;6340330;22;20490;-85
2023/02/21 06:19:04;;;;;;;3.70;3.40;;;18.10;59.00;;;;;;6339785;22;20479;-85
2023/02/21 06:21:32;;;;;;;6.40;4.07;;;18.10;59.10;;;;;;6339567;22;20404;-84
2023/02/21 06:24:01;;;;;;;4.43;4.00;;;18.10;59.10;;;;;;6339713;22;20443;-85
2023/02/21 06:26:30;;;;;;;5.13;3.60;;;18.10;59.10;;;;;;6341409;22;20396;-83
2023/02/21 06:28:58;;;;;;;7.17;4.13;;;18.10;59.20;;;;;;6341750;22;20427;-85
2023/02/21 06:31:27;;;;;;;4.63;3.90;;;18.10;59.10;;;;;;6341214;22;20430;-86
2023/02/21 06:33:55;;;;;;;5.27;3.83;;;18.00;59.10;;;;;;6342571;22;20423;-85
2023/02/21 06:36:25;;;;;;;6.60;3.80;;;18.10;59.10;;;;;;6342222;22;20407;-85
2023/02/21 06:38:54;;;;;;;6.33;3.80;;;18.00;59.20;;;;;;6347308;22;20407;-86
2023/02/21 06:41:24;;;;;;;3.73;3.43;;;18.10;59.10;;;;;;6345558;22;20475;-84
2023/02/21 06:43:53;;;;;;;6.17;4.43;;;18.10;59.10;;;;;;6343524;22;20424;-85
2023/02/21 06:46:23;;;;;;;4.27;3.70;;;18.10;59.10;;;;;;6345745;22;20515;-85
2023/02/21 06:48:51;;;;;;;6.40;4.03;;;18.10;59.20;;;;;;6344706;22;20453;-85
2023/02/21 06:51:19;;;;;;;3.80;3.30;;;18.10;59.20;;;;;;6343909;22;20403;-86
2023/02/21 06:53:49;;;;;;;4.17;3.67;;;18.10;59.20;;;;;;6344112;22;20408;-85
2023/02/21 06:56:18;;;;;;;4.63;3.30;;;18.10;59.20;;;;;;6344235;22;20399;-84
2023/02/21 06:58:46;;;;;;;3.53;3.23;;;18.10;59.10;;;;;;6342580;22;20399;-85
2023/02/21 07:01:15;;;;;;;6.03;3.90;;;18.10;59.20;;;;;;6341903;22;20378;-84
2023/02/21 07:03:44;;;;;;;4.17;3.40;;;18.10;59.30;;;;;;6341911;22;20412;-85
2023/02/21 07:06:12;;;;;;;6.50;3.93;;;18.10;59.30;;;;;;6340917;22;20414;-84
2023/02/21 07:08:41;;;;;;;4.20;3.23;;;18.10;59.20;;;;;;6340850;22;20434;-85
2023/02/21 07:11:09;;;;;;;5.33;3.63;;;18.10;59.30;;;;;;6341849;22;20405;-84
2023/02/21 07:13:37;;;;;;;3.67;3.27;;;18.10;59.20;;;;;;6344275;22;20423;-83
2023/02/21 07:16:06;;;;;;;4.20;3.37;;;18.10;59.20;;;;;;6345101;22;20403;-86
2023/02/21 07:18:36;;;;;;;3.57;3.27;;;18.10;59.20;;;;;;6344152;22;20456;-85
2023/02/21 07:21:04;;;;;;;6.70;3.60;;;18.10;59.30;;;;;;6343806;22;20441;-85
2023/02/21 07:23:32;;;;;;;3.83;3.30;;;18.10;59.20;;;;;;6343299;22;20431;-85
2023/02/21 07:26:00;;;;;;;4.67;3.27;;;18.10;59.30;;;;;;6342959;22;20926;-85
2023/02/21 07:28:28;;;;;;;4.30;2.97;;;18.10;59.30;;;;;;6342866;22;20445;-85
2023/02/21 07:30:56;;;;;;;5.20;3.13;;;18.10;59.40;;;;;;6344197;22;20410;-83
2023/02/21 07:33:25;;;;;;;4.27;3.23;;;18.10;59.30;;;;;;6344243;22;20450;-84
2023/02/21 07:35:55;;;;;;;5.90;3.60;;;18.10;59.40;;;;;;6339997;22;20403;-84
2023/02/21 07:38:23;;;;;;;4.13;3.37;;;18.10;59.30;;;;;;6340093;22;20399;-85
2023/02/21 07:40:51;;;;;;;5.30;3.63;;;18.10;59.30;;;;;;6342007;22;20403;-84
2023/02/21 07:43:19;;;;;;;4.23;3.20;;;18.10;59.30;;;;;;6341884;22;20423;-83
2023/02/21 07:45:47;;;;;;;4.17;3.13;;;18.10;59.30;;;;;;6342867;22;20410;-84
2023/02/21 07:48:15;;;;;;;5.30;3.47;;;18.20;59.30;;;;;;6341042;22;20437;-84
2023/02/21 07:50:44;;;;;;;3.47;3.17;;;18.10;59.20;;;;;;6340912;22;20503;-84
2023/02/21 07:53:13;;;;;;;5.60;3.67;;;18.20;59.40;;;;;;6339448;22;20422;-82
2023/02/21 07:55:41;;;;;;;5.57;3.43;;;18.10;59.20;;;;;;6339082;22;20413;-82
2023/02/21 07:58:09;;;;;;;3.70;3.40;;;18.10;59.20;;;;;;6345160;22;20407;-85
2023/02/21 08:00:38;;;;;;;6.40;3.40;;;18.10;59.30;;;;;;6343819;22;20498;-85
2023/02/21 08:03:08;;;;;;;3.77;3.27;;;18.20;59.40;;;;;;6342271;22;20428;-85
2023/02/21 08:05:36;;;;;;;4.73;3.43;;;18.20;59.30;;;;;;6342396;22;20498;-87
2023/02/21 08:08:05;;;;;;;6.03;3.60;;;18.20;59.30;;;;;;6341236;22;20442;-85
2023/02/21 08:10:35;;;;;;;3.50;3.20;;;18.20;59.30;;;;;;6340470;22;20403;-84
2023/02/21 08:13:03;;;;;;;4.57;3.10;;;18.20;59.80;;;;;;6338487;22;20450;-84
2023/02/21 08:15:31;;;;;;;6.33;3.43;;;18.20;59.40;;;;;;6338017;22;20431;-85
2023/02/21 08:17:59;;;;;;;5.40;2.90;;;18.20;59.90;;;;;;6340458;22;20404;-84
2023/02/21 08:20:28;;;;;;;3.27;2.97;;;18.20;59.30;;;;;;6339171;22;20431;-85
2023/02/21 08:22:56;;;;;;;3.20;2.90;;;18.20;59.30;;;;;;6342299;22;20477;-84
2023/02/21 08:25:24;;;;;;;3.97;3.30;;;18.20;59.40;;;;;;6340875;22;20411;-85
2023/02/21 08:27:54;;;;;;;4.00;2.93;;;18.30;59.40;;;;;;6342316;22;20429;-84
2023/02/21 08:30:22;;;;;;;3.50;3.20;;;18.30;59.40;;;;;;6338675;22;20481;-85
2023/02/21 08:32:50;;;;;;;3.93;2.97;;;18.30;59.40;;;;;;6337504;22;20428;-85
2023/02/21 08:35:19;;;;;;;4.40;3.03;;;18.30;59.40;;;;;;6337589;22;20410;-85
2023/02/21 08:37:47;;;;;;;3.80;3.20;;;18.30;59.30;;;;;;6340112;22;20418;-83
2023/02/21 08:40:15;;;;;;;3.87;3.23;;;18.30;59.40;;;;;;6339779;22;20388;-84
2023/02/21 08:42:43;;;;;;;4.40;2.93;;;18.30;59.40;;;;;;6338801;22;20458;-83
2023/02/21 08:45:15;;;;;;;4.63;2.83;;;18.30;59.30;;;;;;6339330;22;20491;-84
2023/02/21 08:47:43;;;;;;;5.57;2.90;;;18.30;59.20;;;;;;6344565;22;20410;-84
2023/02/21 08:50:11;;;;;;;3.47;2.70;;;18.40;59.40;;;;;;6348642;22;20434;-84
2023/02/21 08:52:39;;;;;;;3.30;3.00;;;18.40;59.40;;;;;;6338722;22;20447;-84
2023/02/21 08:55:07;;;;;;;3.70;2.73;;;18.40;59.20;;;;;;6338739;22;20403;-83
2023/02/21 08:57:36;;;;;;;4.20;2.90;;;18.40;59.30;;;;;;6339189;22;20796;-83
2023/02/21 09:00:06;;;;;;;3.80;2.67;;;18.40;59.30;;;;;;6339596;22;20387;-82
2023/02/21 09:02:38;;;;;;;4.37;2.83;;;18.40;59.40;;;;;;6341193;22;20396;-86
2023/02/21 09:05:08;;;;;;;3.30;2.80;;;18.50;59.50;;;;;;6339857;22;20483;-82
2023/02/21 09:07:36;;;;;;;4.37;3.30;;;18.40;59.40;;;;;;6340491;22;20404;-83
2023/02/21 09:10:04;;;;;;;3.80;2.53;;;18.40;59.30;;;;;;6338965;22;20427;-81
2023/02/21 09:12:32;;;;;;;3.33;3.00;;;18.50;59.40;;;;;;6341672;22;20411;-82
2023/02/21 09:15:01;;;;;;;3.47;2.87;;;18.50;59.20;;;;;;6342972;22;20395;-80
2023/02/21 09:17:32;;;;;;;11.27;6.53;;;18.50;59.30;;;;;;6350969;22;20526;-80
2023/02/21 09:20:05;;;;;;;21.10;9.67;;;18.40;59.50;;;;;;6343722;22;20400;-80
2023/02/21 09:22:33;;;;;;;26.20;12.13;;;17.10;62.10;;;;;;6343989;22;20422;-80
2023/02/21 09:25:01;;;;;;;28.13;11.77;;;16.50;64.00;;;;;;6343244;22;20423;-80
2023/02/21 09:27:36;;;;;;;21.90;11.47;;;15.40;67.80;;;;;;6343872;22;20426;-80
2023/02/21 09:30:05;;;;;;;23.60;12.10;;;15.30;70.40;;;;;;6341443;22;20427;-80
2023/02/21 09:32:33;;;;;;;26.87;12.50;;;15.00;71.50;;;;;;6342191;22;20408;-80
2023/02/21 09:35:03;;;;;;;23.07;11.87;;;14.40;74.90;;;;;;6340935;22;20411;-79
2023/02/21 09:37:31;;;;;;;21.10;11.23;;;14.40;78.40;;;;;;6340681;22;20486;-79
2023/02/21 09:39:59;;;;;;;28.37;11.80;;;14.50;77.40;;;;;;6340916;22;20463;-80
2023/02/21 09:42:29;;;;;;;25.40;12.30;;;14.60;78.10;;;;;;6341121;22;20410;-79
2023/02/21 09:44:57;;;;;;;19.70;9.90;;;14.50;79.20;;;;;;6343164;22;20448;-82
2023/02/21 09:47:28;;;;;;;18.47;10.10;;;14.90;86.30;;;;;;6344113;22;20410;-82
2023/02/21 09:49:59;;;;;;;26.07;9.77;;;15.80;83.30;;;;;;6344899;22;20476;-82
2023/02/21 09:52:31;;;;;;;17.47;9.23;;;16.40;79.00;;;;;;6343268;22;20408;-80
2023/02/21 09:55:01;;;;;;;18.90;9.20;;;16.90;75.50;;;;;;6343102;22;20402;-81
2023/02/21 09:57:30;;;;;;;17.20;8.17;;;17.30;72.80;;;;;;6343769;22;20403;-82
2023/02/21 09:59:58;;;;;;;18.77;8.70;;;17.60;70.80;;;;;;6345347;22;20478;-81
2023/02/21 10:02:38;;;;;;;14.53;7.70;;;17.80;69.40;;;;;;6343778;22;20418;-80
2023/02/21 10:05:09;;;;;;;13.73;7.50;;;18.00;68.00;;;;;;6344930;22;20427;-82
2023/02/21 10:07:46;;;;;;;10.90;6.27;;;18.10;67.00;;;;;;6344194;22;20471;-81
2023/02/21 10:10:29;;;;;;;11.40;6.43;;;18.20;66.30;;;;;;6343565;22;20492;-81
2023/02/21 10:13:01;;;;;;;12.57;6.20;;;18.30;65.60;;;;;;6343662;22;20947;-81
2023/02/21 10:15:42;;;;;;;14.10;5.77;;;18.30;64.80;;;;;;6343687;22;20376;-81
2023/02/21 10:18:19;;;;;;;12.13;5.87;;;18.40;64.40;;;;;;6344796;22;20407;-81
2023/02/21 10:20:58;;;;;;;9.17;5.20;;;18.50;64.00;;;;;;6343714;22;20392;-81
2023/02/21 10:23:29;;;;;;;13.17;5.40;;;18.50;63.60;;;;;;6343877;22;20461;-81
2023/02/21 10:26:01;;;;;;;7.73;4.93;;;18.60;63.40;;;;;;6344287;22;20415;-82
2023/02/21 10:28:29;;;;;;;9.90;4.93;;;18.60;63.20;;;;;;6344162;22;20403;-81
2023/02/21 10:30:58;;;;;;;7.57;4.97;;;18.70;62.90;;;;;;6344645;22;20434;-82
2023/02/21 10:33:27;;;;;;;8.90;5.03;;;18.70;62.60;;;;;;6344387;22;20423;-81
2023/02/21 10:35:55;;;;;;;10.20;4.60;;;18.80;62.60;;;;;;6343238;22;20435;-80
2023/02/21 10:38:24;;;;;;;8.83;4.33;;;18.80;62.20;;;;;;6342615;22;20439;-81
2023/02/21 10:40:56;;;;;;;6.47;4.30;;;18.80;62.10;;;;;;6341805;22;20431;-82
2023/02/21 10:43:26;;;;;;;11.97;4.43;;;18.80;62.00;;;;;;6343060;22;20423;-80
2023/02/21 10:45:57;;;;;;;11.60;4.50;;;18.80;61.80;;;;;;6342960;22;20491;-81
2023/02/21 10:48:27;;;;;;;10.57;4.00;;;18.80;61.70;;;;;;6343570;22;20372;-81
2023/02/21 10:51:06;;;;;;;10.07;4.50;;;18.90;61.60;;;;;;6344327;22;20442;-82
2023/02/21 10:53:35;;;;;;;7.10;3.37;;;18.90;61.40;;;;;;6343324;22;20814;-81
2023/02/21 10:56:09;;;;;;;6.30;3.67;;;18.90;61.30;;;;;;6343547;22;20465;-81
2023/02/21 10:58:37;;;;;;;5.37;4.07;;;19.00;61.30;;;;;;6343755;22;20396;-81
2023/02/21 11:01:12;;;;;;;5.63;4.23;;;19.00;61.10;;;;;;6342660;22;20399;-81
2023/02/21 11:03:46;;;;;;;7.00;3.70;;;19.00;60.90;;;;;;6343354;22;20422;-81
2023/02/21 11:06:26;;;;;;;8.37;4.20;;;19.00;61.00;;;;;;6342681;22;20419;-81
2023/02/21 11:08:55;;;;;;;4.57;3.33;;;19.00;61.00;;;;;;6343433;22;20399;-81
2023/02/21 11:11:33;;;;;;;6.70;3.27;;;19.00;61.00;;;;;;6342262;22;20428;-80
2023/02/21 11:14:20;;;;;;;5.30;3.43;;;19.10;60.90;;;;;;6340933;22;20430;-82
2023/02/21 11:17:07;;;;;;;5.77;3.30;;;19.00;60.70;;;;;;6342302;22;20403;-81
2023/02/21 11:19:42;;;;;;;6.30;3.50;;;19.10;60.80;;;;;;6341002;22;20399;-80
2023/02/21 11:22:10;;;;;;;6.97;3.40;;;19.10;60.70;;;;;;6342195;22;20387;-79
2023/02/21 11:24:47;;;;;;;7.63;3.90;;;19.10;60.50;;;;;;6340231;22;20506;-80
2023/02/21 11:27:16;;;;;;;9.73;3.20;;;19.10;60.40;;;;;;6340883;22;20391;-79
2023/02/21 11:29:45;;;;;;;3.90;3.50;;;19.20;60.60;;;;;;6341969;22;20384;-79
2023/02/21 11:32:13;;;;;;;6.40;3.50;;;19.20;60.70;;;;;;6342056;22;20427;-80
2023/02/21 11:34:47;;;;;;;6.30;3.37;;;19.20;60.70;;;;;;6341733;22;20455;-81
2023/02/21 11:37:15;;;;;;;5.50;3.60;;;19.20;60.70;;;;;;6340968;22;20402;-81
2023/02/21 11:39:43;;;;;;;4.30;2.80;;;19.20;60.70;;;;;;6345369;22;20392;-80
2023/02/21 11:42:27;;;;;;;5.10;3.13;;;19.20;60.50;;;;;;6342094;22;20414;-81
2023/02/21 11:45:14;;;;;;;5.83;3.20;;;19.30;60.50;;;;;;6343656;22;20376;-80
2023/02/21 11:47:45;;;;;;;4.40;3.50;;;19.30;60.40;;;;;;6344347;22;20409;-80
2023/02/21 11:50:22;;;;;;;3.00;2.70;;;19.30;60.30;;;;;;6343536;22;20608;-81
2023/02/21 11:52:54;;;;;;;4.50;3.23;;;19.30;60.40;;;;;;6344282;22;20435;-80
2023/02/21 11:55:23;;;;;;;4.43;3.00;;;19.30;60.40;;;;;;6344609;22;20422;-80
2023/02/21 11:58:01;;;;;;;4.67;3.00;;;19.30;60.40;;;;;;6344047;22;20404;-79
2023/02/21 12:00:32;;;;;;;7.60;3.00;;;19.40;60.30;;;;;;6339700;22;20402;-79
2023/02/21 12:03:06;;;;;;;6.87;3.33;;;19.40;60.20;;;;;;6340922;22;20423;-81
2023/02/21 12:05:44;;;;;;;3.90;3.23;;;19.40;60.30;;;;;;6339890;22;20414;-80
2023/02/21 12:08:29;;;;;;;3.83;3.00;;;19.40;60.20;;;;;;6339879;22;20421;-81
2023/02/21 12:11:00;;;;;;;5.20;3.30;;;19.40;60.30;;;;;;6340181;22;20427;-81
2023/02/21 12:13:34;;;;;;;3.60;3.20;;;19.40;60.30;;;;;;6340134;22;20424;-81
2023/02/21 12:16:07;;;;;;;5.40;3.10;;;19.40;60.40;;;;;;6341059;22;20400;-79
2023/02/21 12:18:43;;;;;;;4.33;2.87;;;19.40;60.30;;;;;;6340954;22;20445;-80
2023/02/21 12:21:24;;;;;;;3.27;2.93;;;19.40;60.40;;;;;;6341313;22;20399;-82
2023/02/21 12:23:55;;;;;;;6.93;3.63;;;19.50;60.40;;;;;;6354623;22;20423;-80
2023/02/21 12:26:32;;;;;;;5.53;4.07;;;19.50;60.30;;;;;;6345807;22;20473;-80
2023/02/21 12:29:09;;;;;;;5.37;3.67;;;19.50;60.20;;;;;;6343246;22;20402;-81
2023/02/21 12:31:49;;;;;;;9.40;4.20;;;19.50;60.20;;;;;;6342902;22;20454;-81
2023/02/21 12:34:25;;;;;;;7.10;3.53;;;19.50;60.10;;;;;;6343250;22;20506;-81
2023/02/21 12:37:21;;;;;;;6.00;3.40;;;19.50;60.10;;;;;;6342479;22;20399;-81
2023/02/21 12:40:01;;;;;;;6.20;3.60;;;19.60;60.10;;;;;;6342614;22;20422;-80
2023/02/21 12:42:40;;;;;;;4.47;3.87;;;19.60;60.10;;;;;;6342771;22;20423;-80
2023/02/21 12:45:36;;;;;;;6.17;4.23;;;19.60;60.10;;;;;;6343176;22;20435;-80
2023/02/21 12:48:06;;;;;;;3.97;3.57;;;19.60;60.10;;;;;;6342878;22;20463;-80
2023/02/21 12:50:39;;;;;;;4.93;4.10;;;19.60;60.20;;;;;;6342125;22;20448;-80
2023/02/21 12:53:10;;;;;;;4.53;3.63;;;19.60;60.10;;;;;;6342168;22;20455;-79
2023/02/21 12:55:39;;;;;;;4.30;3.77;;;19.60;60.10;;;;;;6341191;22;20392;-80
2023/02/21 12:58:11;;;;;;;5.27;3.87;;;19.60;60.10;;;;;;6340483;22;20403;-80
2023/02/21 13:00:46;;;;;;;3.80;3.50;;;19.60;60.10;;;;;;6341953;22;20392;-80
2023/02/21 13:03:25;;;;;;;6.40;4.30;;;19.60;60.10;;;;;;6341774;22;20471;-81
2023/02/21 13:05:56;;;;;;;4.33;3.83;;;19.70;60.30;;;;;;6341188;22;20400;-80
2023/02/21 13:08:31;;;;;;;4.00;3.60;;;19.70;60.20;;;;;;6341120;22;20398;-81
2023/02/21 13:11:03;;;;;;;7.80;3.57;;;19.80;60.20;;;;;;6341294;22;20398;-81
2023/02/21 13:13:32;;;;;;;4.57;3.20;;;19.90;59.90;;;;;;6342309;22;20430;-81
2023/02/21 13:16:03;;;;;;;4.10;3.60;;;19.80;59.80;;;;;;6343390;22;20403;-80
2023/02/21 13:18:32;;;;;;;5.90;3.87;;;19.80;59.80;;;;;;6343395;22;20364;-82
2023/02/21 13:21:05;;;;;;;3.33;3.00;;;19.80;59.90;;;;;;6342390;22;20392;-81
2023/02/21 13:24:11;;;;;;;4.30;3.80;;;19.80;59.90;;;;;;6343367;22;20427;-81
2023/02/21 13:26:49;;;;;;;5.07;3.90;;;19.80;60.00;;;;;;6341679;22;20406;-83
2023/02/21 13:29:19;;;;;;;3.87;3.40;;;19.80;60.00;;;;;;6342183;22;20384;-82
2023/02/21 13:31:59;;;;;;;7.70;3.63;;;19.80;60.10;;;;;;6343532;22;20446;-81
2023/02/21 13:34:29;;;;;;;5.53;3.60;;;19.70;60.00;;;;;;6342609;22;20510;-81
2023/02/21 13:37:01;;;;;;;6.23;3.60;;;19.80;60.10;;;;;;6343980;22;20466;-82
2023/02/21 13:39:30;;;;;;;4.40;4.00;;;19.80;60.00;;;;;;6341835;22;20400;-81
2023/02/21 13:42:05;;;;;;;4.40;3.57;;;19.80;60.20;;;;;;6341837;22;20407;-82
2023/02/21 13:44:34;;;;;;;3.43;3.13;;;19.80;60.00;;;;;;6344453;22;20442;-81
2023/02/21 13:47:12;;;;;;;6.30;3.20;;;19.70;60.00;;;;;;6343534;22;20426;-82
2023/02/21 13:49:47;;;;;;;4.33;3.90;;;19.80;60.20;;;;;;6344213;22;20439;-82
2023/02/21 13:52:27;;;;;;;3.63;3.33;;;19.80;60.10;;;;;;6340687;22;20430;-82
2023/02/21 13:55:31;;;;;;;3.90;3.40;;;19.70;60.10;;;;;;6340498;22;20899;-81
2023/02/21 13:58:32;;;;;;;3.53;3.23;;;19.80;60.30;;;;;;6341351;22;20407;-81
2023/02/21 14:01:51;;;;;;;4.10;3.33;;;19.90;60.10;;;;;;6341090;22;20395;-81
2023/02/21 14:05:01;;;;;;;2.87;2.67;;;19.90;60.10;;;;;;6313556;22;20423;-81
2023/02/21 14:08:02;;;;;;;3.63;3.30;;;19.90;60.00;;;;;;6341784;22;20425;-81
2023/02/21 14:10:37;;;;;;;3.70;3.30;;;19.90;60.00;;;;;;6340554;22;20403;-81
2023/02/21 14:13:06;;;;;;;5.00;3.47;;;19.90;60.00;;;;;;6342062;22;20435;-81
2023/02/21 14:15:42;;;;;;;3.37;3.07;;;19.90;60.00;;;;;;6342065;22;20411;-82
2023/02/21 14:18:19;;;;;;;4.10;3.70;;;19.90;59.80;;;;;;6341618;22;20405;-82
2023/02/21 14:20:49;;;;;;;4.00;3.63;;;19.90;59.90;;;;;;6342238;22;20455;-81
2023/02/21 14:23:19;;;;;;;3.60;3.30;;;19.80;60.00;;;;;;6342304;22;20419;-81
2023/02/21 14:25:58;;;;;;;4.27;3.40;;;19.90;60.10;;;;;;6343570;22;20447;-80
2023/02/21 14:28:49;;;;;;;3.03;2.83;;;19.80;60.10;;;;;;6343715;22;20431;-81
2023/02/21 14:31:48;;;;;;;5.80;3.50;;;19.80;60.00;;;;;;6343229;22;20403;-81
2023/02/21 14:34:21;;;;;;;5.67;3.37;;;19.80;60.20;;;;;;6343875;22;20415;-81
2023/02/21 14:36:49;;;;;;;3.73;3.53;;;19.80;60.30;;;;;;6342868;22;20403;-81
2023/02/21 14:39:18;;;;;;;7.30;3.40;;;19.70;60.20;;;;;;6342974;22;20397;-81
2023/02/21 14:41:58;;;;;;;4.60;3.50;;;19.80;60.30;;;;;;6342658;22;20419;-80
2023/02/21 14:44:28;;;;;;;3.20;3.00;;;19.80;60.30;;;;;;6343740;22;20418;-81
2023/02/21 14:47:24;;;;;;;4.20;3.57;;;19.80;60.30;;;;;;6348250;22;20441;-82
2023/02/21 14:50:08;;;;;;;3.90;3.47;;;19.80;60.30;;;;;;6333874;22;20403;-82
2023/02/21 14:53:13;;;;;;;4.07;3.10;;;19.80;60.20;;;;;;6345912;22;20427;-81
2023/02/21 14:56:17;;;;;;;20.47;14.40;;;19.80;60.10;;;;;;6345342;22;20441;-81
2023/02/21 14:59:06;;;;;;;24.07;15.70;;;18.70;59.30;;;;;;6312458;22;20403;-80
2023/02/21 15:01:45;;;;;;;28.43;16.30;;;17.10;63.90;;;;;;6343484;22;20372;-80
2023/02/21 15:04:18;;;;;;;31.87;18.40;;;16.00;67.90;;;;;;6344159;22;20427;-78
2023/02/21 15:06:53;;;;;;;32.27;16.27;;;15.70;70.60;;;;;;6342669;22;20409;-81
2023/02/21 15:09:21;;;;;;;28.70;15.67;;;15.50;71.60;;;;;;6343447;22;20375;-83
2023/02/21 15:11:50;;;;;;;22.83;14.60;;;15.60;72.50;;;;;;6343990;22;20403;-82
2023/02/21 15:14:23;;;;;;;23.30;13.87;;;16.10;78.20;;;;;;6344245;22;20423;-82
2023/02/21 15:16:53;;;;;;;21.30;13.30;;;16.90;75.80;;;;;;6347058;22;20400;-82
2023/02/21 15:19:25;;;;;;;20.17;12.00;;;17.60;72.40;;;;;;6345900;22;20410;-83
2023/02/21 15:22:17;;;;;;;17.33;11.37;;;18.10;69.50;;;;;;6342437;22;20403;-83
2023/02/21 15:25:17;;;;;;;19.00;10.60;;;18.50;67.00;;;;;;6341018;22;20429;-83
2023/02/21 15:28:00;;;;;;;17.23;10.60;;;18.70;65.50;;;;;;6350222;22;20400;-83
2023/02/21 15:30:56;;;;;;;15.77;9.53;;;18.90;64.60;;;;;;6346174;22;20403;-83
2023/02/21 15:33:26;;;;;;;15.40;9.53;;;19.00;63.60;;;;;;6342702;22;20550;-83
2023/02/21 15:35:58;;;;;;;13.03;8.60;;;19.10;62.90;;;;;;6344198;22;20414;-84